Main page
METAR-TAF:

METAR-TAF

Airports :

Grant County International Airport

Moses Lake, Washington, United States

latitude: 47-11-35N, longitude: 119-18-48W, elevation: 1184 ft

Current weather observation

The report was made 35 minutes ago, at 06:52 UTC
Wind 8 mph from the West
Temperature 45°F
Humidity 49%
Pressure 30.20 in. Hg
Visibility: 10 miles
Clear sky

METAR: KMWH 220652Z AUTO 27007KT 10SM CLR 07/M03 A3020 RMK AO2 SLP228 T00721033

Time: 00:27 (07:27 UTC)

Forecast

The report was made 2 hours and 7 minutes ago, at 05:20 UTC
Forecast valid from 22 at 06 UTC to 23 at 06 UTC
Wind 7 mph from the West/Northwest
Visibility: 6 miles
Few clouds at a height of 25000 ft
From 22 at 1300 UTC
Wind 8 mph from the North/Northwest
Visibility: 6 miles
Clear sky

TAF: KMWH 220520Z 2206/2306 30006KT P6SM FEW250 FM221300 34007KT P6SM SKC

Weather observations and forecasts of more than 4000 airports (METAR and TAF reports).

The available stations are represented by yellow and red dots on the map.

Hover mouse over dot to see the name of the station.

Then click to see weather observations and forecasts.

To change the map : click on the green buttons with a black cross to zoom in, on the green button with a dash to zoom out, or on the green arrows for adjacent maps.


METAR-TAF: